Time;durP1;ratioP1;P1;durP2;ratioP2;P2;SDS_P1;SDS_P2;PMS_P1;PMS_P2;Temp;Humidity;BMP_temperature;BMP_pressure;BME280_temperature;BME280_humidity;BME280_pressure;Samples;Min_cycle;Max_cycle;Signal;HPM_P1;HPM_P2
2023/06/30 04:07:30;;;;;;;7.45;4.82;;;;;;;18.53;74.59;100285.97;5607059;31;77131;-58
2023/06/30 04:10:33;;;;;;;6.15;5.03;;;;;;;18.53;74.59;100285.97;5583929;32;33369;-58
2023/06/30 04:13:35;;;;;;;6.03;4.45;;;;;;;18.09;82.74;100287.53;5583209;31;33630;-58
2023/06/30 04:16:38;;;;;;;5.72;4.20;;;;;;;17.99;85.49;100285.22;5583420;31;33727;-59
2023/06/30 04:19:40;;;;;;;6.05;3.92;;;;;;;18.08;75.27;100280.53;5583294;32;33509;-59
2023/06/30 04:22:43;;;;;;;8.43;4.37;;;;;;;18.07;76.26;100292.47;5583343;31;33599;-59
2023/06/30 04:25:45;;;;;;;8.48;4.62;;;;;;;18.23;75.15;100285.31;5583106;31;34144;-59
2023/06/30 04:28:48;;;;;;;7.03;4.68;;;;;;;18.30;83.35;100292.91;5583205;31;33657;-58
2023/06/30 04:31:51;;;;;;;5.53;4.15;;;;;;;18.33;76.44;100286.81;5583120;32;34370;-59
2023/06/30 04:34:53;;;;;;;9.02;4.28;;;;;;;18.44;80.24;100289.91;5583329;31;33536;-59
2023/06/30 04:37:55;;;;;;;6.82;4.25;;;;;;;18.53;74.00;100282.47;5578707;31;33206;-58
2023/06/30 04:40:58;;;;;;;7.20;4.28;;;;;;;18.64;81.15;100290.97;5563759;32;33609;-59
2023/06/30 04:44:00;;;;;;;6.07;4.18;;;;;;;18.83;73.78;100285.03;5563633;32;33675;-58
2023/06/30 04:47:03;;;;;;;9.48;4.28;;;;;;;18.92;81.61;100278.38;5563262;32;34254;-58
2023/06/30 04:50:05;;;;;;;7.65;4.55;;;;;;;18.96;76.96;100273.06;5563541;32;33591;-58
2023/06/30 04:53:08;;;;;;;5.40;4.00;;;;;;;19.03;72.55;100270.56;5563340;32;33578;-58
2023/06/30 04:56:10;;;;;;;8.77;4.82;;;;;;;19.10;71.92;100262.62;5563420;32;33983;-58
2023/06/30 04:59:12;;;;;;;7.97;5.15;;;;;;;19.25;72.91;100272.81;5563215;32;33707;-58
2023/06/30 05:02:15;;;;;;;12.75;4.93;;;;;;;19.37;76.35;100272.03;5563493;32;33698;-58
2023/06/30 05:05:17;;;;;;;9.10;5.95;;;;;;;19.40;71.63;100265.09;5562994;32;33305;-58
2023/06/30 05:08:19;;;;;;;14.90;6.05;;;;;;;19.51;71.03;100260.78;5563040;32;33731;-58
2023/06/30 05:11:22;;;;;;;9.63;7.85;;;;;;;19.61;75.62;100260.31;5563161;32;33807;-59
2023/06/30 05:14:24;;;;;;;10.32;7.07;;;;;;;19.86;76.18;100261.03;5563525;32;33877;-58
2023/06/30 05:17:26;;;;;;;11.30;9.00;;;;;;;20.03;73.87;100256.44;5555819;32;34390;-58
2023/06/30 05:20:32;;;;;;;9.75;7.55;;;;;;;20.06;72.12;100255.75;5549171;32;33700;-57
2023/06/30 05:23:34;;;;;;;15.45;7.25;;;;;;;20.23;72.21;100262.81;5549765;32;34077;-58
2023/06/30 05:26:37;;;;;;;14.98;6.85;;;;;;;20.38;69.14;100260.13;5549831;32;34399;-58
2023/06/30 05:29:39;;;;;;;11.90;7.03;;;;;;;20.63;70.40;100260.81;5549788;32;34319;-58
2023/06/30 05:32:42;;;;;;;8.63;6.65;;;;;;;20.90;66.85;100257.56;5549856;32;33660;-58
2023/06/30 05:35:44;;;;;;;10.55;6.28;;;;;;;20.95;67.61;100266.25;5549790;32;33592;-58
2023/06/30 05:38:47;;;;;;;11.48;6.90;;;;;;;21.14;76.84;100251.91;5550276;32;34355;-58
2023/06/30 05:41:49;;;;;;;11.73;6.93;;;;;;;21.36;66.56;100255.94;5549983;32;33585;-59
2023/06/30 05:44:51;;;;;;;11.25;7.28;;;;;;;21.52;68.89;100264.88;5549079;32;34297;-58
2023/06/30 05:47:54;;;;;;;16.62;8.10;;;;;;;21.54;64.62;100262.56;5566954;32;33318;-59
2023/06/30 05:50:56;;;;;;;15.88;6.90;;;;;;;21.65;65.40;100264.72;5567624;32;33616;-60
2023/06/30 05:53:59;;;;;;;13.68;7.70;;;;;;;21.82;67.64;100264.34;5568590;32;33668;-58
2023/06/30 05:57:01;;;;;;;17.95;7.90;;;;;;;21.96;65.28;100267.34;5567687;32;33441;-60
2023/06/30 06:00:05;;;;;;;16.92;7.60;;;;;;;21.97;64.68;100271.63;5568931;32;33561;-59
2023/06/30 06:03:12;;;;;;;15.18;7.95;;;;;;;22.10;65.88;100263.31;5569136;32;35146;-58
2023/06/30 06:06:15;;;;;;;14.27;7.30;;;;;;;22.42;65.75;100264.72;5569001;32;34189;-58
2023/06/30 06:09:18;;;;;;;19.30;7.72;;;;;;;22.45;65.36;100269.47;5567247;32;34360;-58
2023/06/30 06:12:21;;;;;;;22.05;9.27;;;;;;;22.50;63.68;100263.69;5566836;32;33668;-58
2023/06/30 06:15:23;;;;;;;31.65;10.02;;;;;;;22.60;62.15;100269.72;5562807;32;34234;-58
2023/06/30 06:18:26;;;;;;;13.45;8.40;;;;;;;22.59;62.44;100268.13;5567216;32;33926;-58
2023/06/30 06:21:28;;;;;;;16.75;7.93;;;;;;;22.70;62.22;100269.88;5565200;32;33759;-58
2023/06/30 06:24:31;;;;;;;14.50;7.70;;;;;;;22.81;62.52;100270.06;5567662;32;33723;-59
2023/06/30 06:27:35;;;;;;;11.25;7.20;;;;;;;23.02;63.20;100266.91;5568633;32;34351;-58
2023/06/30 06:30:37;;;;;;;17.73;8.00;;;;;;;23.10;60.12;100254.91;5567703;32;33719;-59
2023/06/30 06:33:41;;;;;;;16.80;7.80;;;;;;;23.23;60.61;100258.25;5568291;32;34027;-58
2023/06/30 06:36:44;;;;;;;15.85;6.70;;;;;;;23.25;60.71;100255.94;5566189;32;34373;-58
2023/06/30 06:39:46;;;;;;;17.02;6.68;;;;;;;23.39;60.72;100249.88;5568761;32;33673;-58
2023/06/30 06:42:49;;;;;;;16.87;5.65;;;;;;;23.59;61.61;100247.78;5568327;32;33675;-58
2023/06/30 06:45:52;;;;;;;9.52;5.40;;;;;;;23.75;62.10;100253.09;5549021;32;33126;-58
2023/06/30 06:48:54;;;;;;;14.85;5.37;;;;;;;23.79;58.50;100251.19;5563208;32;33577;-58
2023/06/30 06:51:57;;;;;;;7.70;4.87;;;;;;;23.83;58.85;100252.03;5568369;32;34332;-58
2023/06/30 06:54:59;;;;;;;9.60;4.10;;;;;;;23.92;57.23;100244.31;5563897;32;33766;-59
2023/06/30 06:58:02;;;;;;;7.40;4.75;;;;;;;24.00;62.05;100247.91;5566532;32;33901;-61
2023/06/30 07:01:05;;;;;;;11.95;4.72;;;;;;;24.15;59.29;100242.22;5567445;32;34267;-61
2023/06/30 07:04:07;;;;;;;7.00;4.45;;;;;;;24.21;58.26;100236.41;5566779;32;33567;-61
2023/06/30 07:07:10;;;;;;;8.85;4.30;;;;;;;24.23;56.49;100243.06;5568136;32;33620;-61
2023/06/30 07:10:12;;;;;;;11.38;4.40;;;;;;;24.31;56.09;100244.72;5568124;32;34275;-61
2023/06/30 07:13:17;;;;;;;6.65;4.18;;;;;;;24.33;54.40;100238.84;5567598;32;33620;-60
2023/06/30 07:16:21;;;;;;;6.72;3.60;;;;;;;24.41;55.80;100240.56;5563640;32;33601;-60
2023/06/30 07:19:24;;;;;;;6.80;3.70;;;;;;;24.54;55.68;100241.84;5552155;32;33458;-60
2023/06/30 07:22:26;;;;;;;7.35;3.62;;;;;;;24.57;54.42;100234.81;5549248;32;33546;-60
2023/06/30 07:25:28;;;;;;;6.45;3.05;;;;;;;24.73;53.78;100231.81;5563591;32;33671;-60
2023/06/30 07:28:31;;;;;;;4.95;3.17;;;;;;;24.80;51.73;100235.41;5567884;32;33756;-60
2023/06/30 07:31:34;;;;;;;4.25;3.03;;;;;;;24.83;50.60;100231.91;5567853;32;34328;-61
2023/06/30 07:34:36;;;;;;;5.45;3.10;;;;;;;25.03;50.16;100237.09;5567619;32;33381;-60
2023/06/30 07:37:40;;;;;;;4.95;3.60;;;;;;;25.05;51.04;100224.59;5564104;32;33854;-61
2023/06/30 07:40:42;;;;;;;6.22;3.72;;;;;;;25.09;51.10;100221.88;5567620;32;33951;-60
2023/06/30 07:43:59;;;;;;;5.37;3.10;;;;;;;25.17;50.42;100229.03;5568493;32;33657;-61
2023/06/30 07:47:01;;;;;;;4.95;3.10;;;;;;;25.12;47.46;100234.06;5567725;32;33926;-61
2023/06/30 07:50:09;;;;;;;6.55;3.15;;;;;;;25.12;48.58;100217.63;5567188;32;34354;-60
2023/06/30 07:53:11;;;;;;;5.70;3.30;;;;;;;25.32;48.81;100221.66;5563629;32;33602;-61
2023/06/30 07:56:13;;;;;;;4.18;3.12;;;;;;;25.28;48.05;100220.84;5564007;32;33256;-60
2023/06/30 07:59:16;;;;;;;7.12;3.33;;;;;;;25.34;47.99;100222.06;5561162;32;34403;-60
2023/06/30 08:02:18;;;;;;;5.05;2.75;;;;;;;25.44;48.77;100218.56;5567504;32;33769;-60
2023/06/30 08:05:21;;;;;;;7.78;2.95;;;;;;;25.57;48.20;100219.03;5566705;32;33643;-60
2023/06/30 08:08:24;;;;;;;4.78;2.75;;;;;;;25.46;45.81;100202.53;5548806;32;34604;-61
2023/06/30 08:11:26;;;;;;;7.90;2.97;;;;;;;25.47;44.38;100203.31;5551243;32;34247;-60
2023/06/30 08:14:28;;;;;;;4.78;2.40;;;;;;;25.45;43.70;100203.69;5565681;32;33604;-61
2023/06/30 08:17:31;;;;;;;6.22;2.75;;;;;;;25.49;44.53;100212.69;5567353;32;33598;-61
2023/06/30 08:20:55;;;;;;;5.68;3.05;;;;;;;25.55;45.61;100205.69;5567656;32;33626;-61
2023/06/30 08:23:58;;;;;;;5.25;2.30;;;;;;;25.56;45.10;100200.97;5567711;32;33550;-60
2023/06/30 08:27:01;;;;;;;5.12;2.78;;;;;;;25.57;43.61;100191.59;5567555;32;33755;-61
2023/06/30 08:30:04;;;;;;;10.07;2.50;;;;;;;25.58;44.45;100198.62;5567224;32;33362;-61
2023/06/30 08:33:06;;;;;;;16.33;3.42;;;;;;;25.62;42.81;100201.38;5567292;32;33197;-61
2023/06/30 08:36:11;;;;;;;5.13;3.10;;;;;;;25.62;43.67;100206.87;5567363;32;33579;-60
2023/06/30 08:39:13;;;;;;;7.95;3.00;;;;;;;25.71;45.52;100205.34;5567305;32;34298;-61
2023/06/30 08:42:19;;;;;;;5.57;2.90;;;;;;;25.69;44.94;100201.41;5567421;32;34285;-61
2023/06/30 08:45:28;;;;;;;4.93;2.60;;;;;;;25.69;44.38;100201.41;5566299;32;33599;-61
2023/06/30 08:48:34;;;;;;;3.37;2.80;;;;;;;25.87;44.39;100198.75;5567164;32;33585;-61
2023/06/30 08:51:36;;;;;;;;;;;;;;;25.95;44.49;100198.38;5567318;32;34314;-60
2023/06/30 08:54:38;;;;;;;5.80;2.75;;;;;;;25.90;44.86;100196.03;5569624;32;33846;-61
2023/06/30 08:57:41;;;;;;;8.57;2.67;;;;;;;25.98;44.53;100191.31;5569798;32;33717;-60
2023/06/30 09:00:44;;;;;;;10.60;2.90;;;;;;;25.99;43.27;100188.22;5570065;32;33504;-61
2023/06/30 09:03:47;;;;;;;3.58;2.55;;;;;;;26.02;43.94;100189.37;5569609;32;33741;-61
2023/06/30 09:06:51;;;;;;;2.97;2.53;;;;;;;25.96;43.81;100188.16;5569420;32;34330;-61
2023/06/30 09:10:00;;;;;;;6.25;2.80;;;;;;;26.01;45.36;100180.34;5569570;32;34322;-61
2023/06/30 09:13:10;;;;;;;3.33;2.30;;;;;;;26.02;43.71;100183.88;5555512;32;34414;-60
2023/06/30 09:16:17;;;;;;;5.15;2.60;;;;;;;26.01;43.74;100176.81;5569076;32;33624;-61
2023/06/30 09:19:21;;;;;;;4.00;2.33;;;;;;;26.07;45.82;100174.47;5568802;32;33613;-60
2023/06/30 09:22:25;;;;;;;6.07;2.60;;;;;;;26.07;42.67;100180.75;5569069;32;34063;-59
2023/06/30 09:25:47;;;;;;;4.22;2.60;;;;;;;26.06;42.70;100168.22;5568844;32;34493;-59
2023/06/30 09:28:53;;;;;;;8.68;3.10;;;;;;;26.18;42.90;100170.56;5569600;32;33705;-59
2023/06/30 09:32:01;;;;;;;24.42;3.90;;;;;;;26.30;45.73;100169.41;5563963;32;33356;-59
2023/06/30 09:35:06;;;;;;;3.33;2.33;;;;;;;26.30;45.16;100169.41;5552105;32;33691;-59
2023/06/30 09:38:13;;;;;;;8.18;3.03;;;;;;;26.30;42.11;100163.91;5568531;32;32987;-60
2023/06/30 09:41:20;;;;;;;7.00;2.45;;;;;;;26.32;43.75;100155.25;5561121;32;33457;-60
2023/06/30 09:44:23;;;;;;;6.20;3.10;;;;;;;26.30;43.05;100150.16;5556964;32;33916;-59
2023/06/30 09:47:26;;;;;;;5.57;2.65;;;;;;;26.33;44.62;100149.37;5562486;32;33638;-59
2023/06/30 09:50:32;;;;;;;6.32;2.50;;;;;;;26.43;41.39;100150.56;5565141;32;33729;-59
2023/06/30 09:53:38;;;;;;;8.60;2.20;;;;;;;26.38;41.84;100145.44;5568903;32;33701;-59
2023/06/30 09:56:40;;;;;;;6.25;2.50;;;;;;;26.47;42.64;100154.09;5552554;32;33713;-59
2023/06/30 09:59:45;;;;;;;5.43;2.45;;;;;;;26.45;41.19;100154.47;5560120;32;33716;-59
2023/06/30 10:03:02;;;;;;;3.67;2.30;;;;;;;26.36;41.49;100147.81;5567122;32;34322;-59
2023/06/30 10:06:05;;;;;;;2.87;2.05;;;;;;;26.54;41.93;100148.59;5567940;32;33589;-59
2023/06/30 10:09:08;;;;;;;6.25;2.17;;;;;;;26.50;41.47;100156.06;5568794;32;33392;-59
2023/06/30 10:12:13;;;;;;;4.40;2.33;;;;;;;26.52;39.94;100152.91;5568485;32;34199;-59
2023/06/30 10:15:15;;;;;;;3.30;2.30;;;;;;;26.52;39.88;100158.41;5568726;32;34303;-59
2023/06/30 10:18:20;;;;;;;3.17;2.17;;;;;;;26.45;41.79;100148.97;5556068;32;34408;-59
2023/06/30 10:21:22;;;;;;;5.65;2.12;;;;;;;26.60;41.17;100147.03;5565732;32;34240;-59
2023/06/30 10:24:32;;;;;;;6.70;3.00;;;;;;;26.60;41.57;100149.78;5568757;32;34387;-59
2023/06/30 10:27:39;;;;;;;4.97;2.00;;;;;;;26.57;40.65;100142.31;5568903;32;33708;-58
2023/06/30 10:30:42;;;;;;;8.55;2.40;;;;;;;26.56;41.43;100149.00;5568609;32;34080;-58
2023/06/30 10:33:44;;;;;;;6.72;3.03;;;;;;;26.65;41.38;100138.38;5565701;32;33658;-58
2023/06/30 10:36:47;;;;;;;4.95;2.55;;;;;;;26.72;41.80;100134.81;5568257;32;34403;-58
2023/06/30 10:39:50;;;;;;;4.37;2.75;;;;;;;26.66;41.73;100136.44;5568072;32;34313;-59
2023/06/30 10:42:56;;;;;;;6.22;2.95;;;;;;;26.78;42.82;100138.75;5568240;32;33647;-58
2023/06/30 10:46:06;;;;;;;4.53;2.60;;;;;;;26.95;42.86;100150.88;5568117;32;33789;-59
2023/06/30 10:49:17;;;;;;;4.45;2.50;;;;;;;26.95;41.84;100139.88;5567329;32;33615;-58
2023/06/30 10:52:29;;;;;;;5.57;2.95;;;;;;;26.94;42.32;100138.31;5566508;32;33646;-58
2023/06/30 10:55:32;;;;;;;3.95;2.50;;;;;;;26.86;41.61;100132.06;5567331;32;33770;-58
2023/06/30 10:58:39;;;;;;;5.37;2.28;;;;;;;26.84;40.24;100126.16;5567997;32;34009;-58
2023/06/30 11:02:14;;;;;;;7.75;2.53;;;;;;;26.90;42.49;100119.06;5568628;32;33769;-58
2023/06/30 11:05:34;;;;;;;2.72;2.37;;;;;;;26.93;40.46;100120.25;5568110;32;34695;-59
2023/06/30 11:08:36;;;;;;;4.03;2.50;;;;;;;26.94;40.70;100103.34;5563841;32;33729;-59
2023/06/30 11:11:49;;;;;;;5.60;2.53;;;;;;;27.07;40.96;100111.16;5564867;32;33559;-58
2023/06/30 11:14:52;;;;;;;3.85;2.47;;;;;;;27.04;40.35;100107.22;5565862;32;33775;-58
2023/06/30 11:17:54;;;;;;;4.35;2.47;;;;;;;27.05;43.40;100110.75;5568211;32;33232;-58
2023/06/30 11:21:02;;;;;;;6.65;3.00;;;;;;;27.15;40.27;100105.28;5568605;32;34254;-58
2023/06/30 11:24:14;;;;;;;3.72;2.55;;;;;;;27.15;40.92;100096.22;5567580;32;34304;-58
2023/06/30 11:27:17;;;;;;;2.55;2.35;;;;;;;27.32;39.79;100102.84;5559031;32;33731;-58
2023/06/30 11:30:20;;;;;;;7.72;2.65;;;;;;;27.44;38.81;100093.31;5556213;32;34383;-59
2023/06/30 11:33:22;;;;;;;5.80;2.08;;;;;;;27.35;39.40;100086.31;5566921;32;32114;-58
2023/06/30 11:36:29;;;;;;;6.12;2.50;;;;;;;27.25;38.78;100076.12;5564200;32;33611;-58
2023/06/30 11:39:34;;;;;;;5.12;2.50;;;;;;;27.17;40.01;100071.84;5557236;32;33718;-59
2023/06/30 11:42:40;;;;;;;4.12;2.20;;;;;;;27.23;39.76;100080.47;5558445;32;34394;-59
2023/06/30 11:45:43;;;;;;;4.72;2.33;;;;;;;27.31;39.72;100085.50;5556188;32;33662;-59
2023/06/30 11:48:48;;;;;;;4.85;2.62;;;;;;;27.33;38.61;100054.84;5558178;32;34329;-59
2023/06/30 11:51:50;;;;;;;5.35;2.60;;;;;;;27.22;39.69;100060.44;5557339;32;34408;-59
2023/06/30 11:54:53;;;;;;;10.07;3.00;;;;;;;27.19;43.22;100063.19;5552550;32;33772;-59
2023/06/30 11:57:55;;;;;;;4.20;2.40;;;;;;;27.25;41.53;100054.13;5558831;32;34007;-59
2023/06/30 12:00:58;;;;;;;4.53;2.75;;;;;;;27.22;41.15;100043.09;5562679;32;33844;-59
2023/06/30 12:04:07;;;;;;;10.52;3.15;;;;;;;27.34;41.83;100048.94;5560994;32;34390;-59
2023/06/30 12:07:14;;;;;;;9.73;2.90;;;;;;;27.36;41.99;100046.56;5559244;32;33418;-59
2023/06/30 12:10:17;;;;;;;6.10;3.25;;;;;;;27.29;41.46;100037.59;5556906;32;33598;-59
2023/06/30 12:13:20;;;;;;;7.57;3.08;;;;;;;27.27;41.37;100043.47;5556725;32;33664;-59
2023/06/30 12:16:38;;;;;;;6.62;2.90;;;;;;;27.40;40.49;100041.81;5558236;32;32514;-59
2023/06/30 12:19:44;;;;;;;4.43;2.72;;;;;;;27.37;40.68;100025.34;5557525;32;34060;-59
2023/06/30 12:22:50;;;;;;;3.97;2.58;;;;;;;27.51;41.45;100022.47;5560358;32;34397;-60
2023/06/30 12:25:53;;;;;;;5.85;2.50;;;;;;;27.50;41.07;100031.94;5559767;32;33297;-60
2023/06/30 12:29:07;;;;;;;6.62;2.67;;;;;;;27.45;39.56;100021.38;5561875;32;33681;-60
2023/06/30 12:32:13;;;;;;;3.97;2.10;;;;;;;27.44;39.45;100017.03;5564673;32;33718;-59
2023/06/30 12:35:26;;;;;;;;;;;;;;;27.45;39.88;100017.81;5570195;32;33693;-59
2023/06/30 12:38:28;;;;;;;5.25;2.75;;;;;;;27.56;39.88;100024.03;5563969;31;34069;-59
2023/06/30 12:41:31;;;;;;;6.53;2.28;;;;;;;27.54;39.82;100020.91;5559789;32;34328;-59
2023/06/30 12:44:33;;;;;;;7.20;2.42;;;;;;;27.64;39.18;100011.78;5569320;32;33581;-59
2023/06/30 12:47:36;;;;;;;4.68;2.62;;;;;;;27.74;39.41;100005.41;5570312;32;33739;-59
2023/06/30 12:50:38;;;;;;;4.35;2.53;;;;;;;27.71;40.63;100019.19;5570287;32;33428;-59
2023/06/30 12:53:41;;;;;;;4.40;2.80;;;;;;;27.70;39.38;100012.12;5569541;32;33257;-59
2023/06/30 12:56:43;;;;;;;4.50;2.70;;;;;;;27.56;40.15;100005.53;5558994;32;33313;-59
2023/06/30 12:59:45;;;;;;;3.80;2.78;;;;;;;27.58;41.96;100005.12;5550782;32;33608;-59
2023/06/30 13:02:47;;;;;;;5.65;2.65;;;;;;;27.71;40.24;99997.94;5569473;32;33758;-59
2023/06/30 13:05:51;;;;;;;5.68;2.60;;;;;;;27.74;40.27;99999.88;5569967;32;33655;-59
2023/06/30 13:08:53;;;;;;;5.12;2.72;;;;;;;27.58;40.91;100005.12;5568117;32;33746;-59
2023/06/30 13:11:55;;;;;;;9.15;3.30;;;;;;;27.57;40.03;99996.09;5563554;32;33268;-60
2023/06/30 13:14:59;;;;;;;4.78;2.83;;;;;;;27.56;40.73;99988.25;5556584;32;33829;-59
2023/06/30 13:18:02;;;;;;;5.37;2.67;;;;;;;27.55;41.30;99989.41;5568598;32;33654;-59
2023/06/30 13:21:05;;;;;;;6.28;2.72;;;;;;;27.60;40.56;99984.28;5569952;32;33685;-59
2023/06/30 13:24:07;;;;;;;4.85;2.33;;;;;;;27.76;40.05;99989.28;5570161;32;33662;-59
2023/06/30 13:27:11;;;;;;;4.45;2.50;;;;;;;27.81;38.63;99979.78;5570133;32;33756;-59
2023/06/30 13:30:13;;;;;;;4.37;2.60;;;;;;;27.77;38.37;99974.31;5569476;32;34346;-60
2023/06/30 13:33:15;;;;;;;6.22;2.95;;;;;;;27.63;38.82;99968.91;5569641;32;33780;-59
2023/06/30 13:36:18;;;;;;;4.47;2.83;;;;;;;27.63;38.82;99971.66;5570037;32;33635;-59
2023/06/30 13:39:20;;;;;;;4.28;2.80;;;;;;;27.64;38.55;99959.44;5564483;32;33657;-59
2023/06/30 13:42:24;;;;;;;6.68;2.92;;;;;;;27.68;39.28;99956.66;5568018;32;34389;-59
2023/06/30 13:45:26;;;;;;;10.45;3.17;;;;;;;27.79;40.12;99946.38;5569103;32;34291;-59
2023/06/30 13:48:29;;;;;;;10.07;3.08;;;;;;;27.76;41.03;99936.16;5569506;32;33735;-59
2023/06/30 13:51:31;;;;;;;4.80;3.08;;;;;;;27.86;40.90;99943.56;5569429;32;33592;-59
2023/06/30 13:54:36;;;;;;;6.28;3.30;;;;;;;27.93;40.73;99937.97;5552801;32;33610;-59
2023/06/30 13:57:38;;;;;;;7.30;3.27;;;;;;;27.78;41.49;99931.03;5568826;32;33698;-60
2023/06/30 14:00:41;;;;;;;9.07;2.87;;;;;;;27.75;40.13;99929.88;5567855;32;34463;-60
2023/06/30 14:03:48;;;;;;;6.22;3.03;;;;;;;27.89;40.51;99930.94;5568777;32;33606;-60
2023/06/30 14:06:50;;;;;;;6.43;2.87;;;;;;;27.84;39.95;99929.41;5569626;32;34959;-60
2023/06/30 14:09:55;;;;;;;9.10;2.78;;;;;;;27.76;40.44;99919.63;5569645;32;33838;-60
2023/06/30 14:13:00;;;;;;;5.55;3.00;;;;;;;27.62;40.12;99912.28;5569286;32;33775;-60
2023/06/30 14:16:02;;;;;;;7.00;2.93;;;;;;;27.57;40.17;99910.75;5569449;32;33576;-60
2023/06/30 14:19:06;;;;;;;5.55;2.70;;;;;;;27.65;39.53;99900.47;5569232;32;33747;-60
2023/06/30 14:22:08;;;;;;;7.18;2.75;;;;;;;27.84;39.38;99896.34;5569170;32;33622;-60
2023/06/30 14:25:21;;;;;;;7.40;2.85;;;;;;;27.72;39.03;99894.09;5569465;32;33735;-60
2023/06/30 14:28:23;;;;;;;5.28;2.78;;;;;;;27.64;38.90;99885.88;5569391;32;34308;-60
2023/06/30 14:31:25;;;;;;;10.25;3.20;;;;;;;27.64;39.77;99874.09;5569463;32;33653;-60
2023/06/30 14:34:28;;;;;;;10.68;3.00;;;;;;;27.68;38.64;99871.31;5569059;32;33664;-60
2023/06/30 14:37:30;;;;;;;4.85;2.80;;;;;;;27.72;38.90;99870.09;5567538;32;33670;-60
2023/06/30 14:40:33;;;;;;;7.15;2.62;;;;;;;27.82;38.61;99865.69;5568457;32;34411;-60
